createdAt,value
2022-09-04T00:00:02.660Z,78.43
2022-09-04T00:01:01.167Z,78.27
2022-09-04T00:02:08.504Z,78.23
2022-09-04T00:03:01.808Z,78.37
2022-09-04T00:04:04.048Z,78.57
2022-09-04T00:05:04.404Z,78.77
2022-09-04T00:06:02.788Z,78.57
2022-09-04T00:07:03.080Z,78.97
2022-09-04T00:08:03.401Z,78.97
2022-09-04T00:09:03.695Z,78.77
2022-09-04T00:10:05.879Z,78.77
2022-09-04T00:11:04.256Z,79.32
2022-09-04T00:12:04.581Z,79.21
2022-09-04T00:13:04.881Z,79.32
2022-09-04T00:14:05.189Z,79.41
2022-09-04T00:15:07.373Z,79.32
2022-09-04T00:16:05.765Z,78.97
2022-09-04T00:17:06.075Z,79.41
2022-09-04T00:18:06.363Z,79.52
2022-09-04T00:19:06.672Z,78.91
2022-09-04T00:20:08.855Z,79.32
2022-09-04T00:21:07.233Z,79.41
2022-09-04T00:22:07.541Z,79.21
2022-09-04T00:23:07.844Z,79.62
2022-09-04T00:24:10.034Z,79.96
2022-09-04T00:25:10.202Z,80.06
2022-09-04T00:26:08.708Z,79.86
2022-09-04T00:27:10.884Z,79.62
2022-09-04T00:28:09.273Z,79.72
2022-09-04T00:29:09.583Z,79.62
2022-09-04T00:30:09.882Z,79.72
2022-09-04T00:31:10.243Z,80.06
2022-09-04T00:32:10.543Z,79.96
2022-09-04T00:33:13.957Z,79.96
2022-09-04T00:34:11.206Z,79.92
2022-09-04T00:35:11.517Z,80.06
2022-09-04T00:36:13.693Z,80.26
2022-09-04T00:37:12.067Z,80.36
2022-09-04T00:38:14.244Z,80.36
2022-09-04T00:39:13.844Z,80.26
2022-09-04T00:40:12.895Z,80.26
2022-09-04T00:41:15.074Z,80.46
2022-09-04T00:42:13.457Z,80.36
2022-09-04T00:43:13.762Z,80.46
2022-09-04T00:44:14.074Z,80.46
2022-09-04T00:45:16.575Z,80.36
2022-09-04T00:46:16.644Z,80.36
2022-09-04T00:47:14.884Z,80.26
2022-09-04T00:48:15.189Z,80.36
2022-09-04T00:49:18.838Z,80.46
2022-09-04T00:50:15.747Z,80.46
2022-09-04T00:51:17.917Z,80.57
2022-09-04T00:52:16.316Z,80.57
2022-09-04T00:53:16.644Z,80.46
2022-09-04T00:54:18.835Z,80.46
2022-09-04T00:55:17.218Z,80.57
2022-09-04T00:56:19.409Z,80.57
2022-09-04T00:57:17.785Z,80.46
2022-09-04T00:58:19.972Z,80.66
2022-09-04T00:59:20.290Z,80.97
2022-09-04T01:00:18.670Z,81.11
2022-09-04T01:01:19.081Z,81.11
2022-09-04T01:02:21.182Z,81.11
2022-09-04T01:03:21.330Z,81.21
2022-09-04T01:04:19.852Z,81.21
2022-09-04T01:05:22.032Z,81.41
2022-09-04T01:06:20.410Z,81.31
2022-09-04T01:07:20.657Z,81.31
2022-09-04T01:08:22.850Z,81.41
2022-09-04T01:09:21.220Z,81.21
2022-09-04T01:10:23.408Z,81.41
2022-09-04T01:11:21.785Z,81.41
2022-09-04T01:12:22.093Z,81.31
2022-09-04T01:13:22.398Z,81.31
2022-09-04T01:14:26.573Z,81.21
2022-09-04T01:15:24.788Z,81.31
2022-09-04T01:16:24.193Z,81.51
2022-09-04T01:17:24.583Z,81.62
2022-09-04T01:18:24.804Z,81.51
2022-09-04T01:19:26.001Z,81.71
2022-09-04T01:20:24.387Z,81.71
2022-09-04T01:21:26.575Z,81.62
2022-09-04T01:22:24.953Z,81.62
2022-09-04T01:23:25.253Z,81.82
2022-09-04T01:24:26.442Z,81.82
2022-09-04T01:25:25.802Z,81.92
2022-09-04T01:26:27.045Z,81.82
2022-09-04T01:27:27.201Z,81.51
2022-09-04T01:28:27.626Z,81.71
2022-09-04T01:29:27.876Z,82.02
2022-09-04T01:30:28.197Z,82.02
2022-09-04T01:31:29.444Z,81.92
2022-09-04T01:32:27.794Z,81.92
2022-09-04T01:33:28.103Z,81.41
2022-09-04T01:34:28.429Z,82.06
2022-09-04T01:35:28.734Z,82.02
2022-09-04T01:36:29.924Z,82.12
2022-09-04T01:37:32.119Z,82.26
2022-09-04T01:38:31.294Z,82.12
2022-09-04T01:39:29.837Z,81.92
2022-09-04T01:40:35.803Z,81.71
2022-09-04T01:41:34.011Z,81.71
2022-09-04T01:42:31.783Z,81.82
2022-09-04T01:43:30.910Z,81.71
2022-09-04T01:44:33.090Z,81.62
2022-09-04T01:45:31.524Z,81.21
2022-09-04T01:46:33.656Z,81.51
2022-09-04T01:47:33.823Z,81.51
2022-09-04T01:48:33.980Z,81.82
2022-09-04T01:49:34.156Z,81.41
2022-09-04T01:50:34.806Z,80.77
2022-09-04T01:51:34.990Z,81.21
2022-09-04T01:52:33.491Z,81.41
2022-09-04T01:53:35.687Z,80.97
2022-09-04T01:54:35.860Z,81.07
2022-09-04T01:55:34.490Z,81.31
2022-09-04T01:56:36.670Z,81.41
2022-09-04T01:57:36.852Z,81.31
2022-09-04T01:58:35.359Z,81.51
2022-09-04T01:59:37.562Z,81.51
2022-09-04T02:00:35.938Z,81.62
2022-09-04T02:01:36.344Z,81.71
2022-09-04T02:02:38.480Z,81.92
2022-09-04T02:03:36.850Z,81.82
2022-09-04T02:04:37.156Z,81.62
2022-09-04T02:05:37.477Z,81.62
2022-09-04T02:06:37.767Z,81.71
2022-09-04T02:07:39.957Z,81.92
2022-09-04T02:08:40.134Z,82.02
2022-09-04T02:09:38.676Z,82.12
2022-09-04T02:10:38.972Z,81.92
2022-09-04T02:11:39.281Z,81.92
2022-09-04T02:12:41.450Z,81.82
2022-09-04T02:13:39.833Z,82.16
2022-09-04T02:14:42.024Z,82.26
2022-09-04T02:15:40.410Z,82.16
2022-09-04T02:16:40.742Z,82.46
2022-09-04T02:17:41.022Z,82.36
2022-09-04T02:18:43.200Z,82.46
2022-09-04T02:19:43.577Z,82.36
2022-09-04T02:20:41.809Z,82.56
2022-09-04T02:21:43.994Z,82.46
2022-09-04T02:22:42.377Z,82.26
2022-09-04T02:23:44.565Z,82.36
2022-09-04T02:24:46.709Z,82.67
2022-09-04T02:25:43.255Z,82.56
2022-09-04T02:26:43.565Z,82.56
2022-09-04T02:27:43.868Z,82.26
2022-09-04T02:28:46.043Z,82.26
2022-09-04T02:29:46.250Z,82.16
2022-09-04T02:30:44.766Z,82.46
2022-09-04T02:31:45.028Z,82.67
2022-09-04T02:32:45.303Z,83.11
2022-09-04T02:33:47.476Z,83.01
2022-09-04T02:34:47.643Z,83.11
2022-09-04T02:35:47.827Z,82.90
2022-09-04T02:36:46.454Z,83.11
2022-09-04T02:37:46.718Z,82.67
2022-09-04T02:38:47.023Z,82.76
2022-09-04T02:39:47.383Z,82.67
2022-09-04T02:40:49.526Z,82.76
2022-09-04T02:41:47.908Z,82.76
2022-09-04T02:42:48.215Z,82.90
2022-09-04T02:43:48.659Z,82.56
2022-09-04T02:44:52.273Z,82.36
2022-09-04T02:45:49.060Z,82.90
2022-09-04T02:46:49.417Z,82.60
2022-09-04T02:47:49.610Z,82.90
2022-09-04T02:48:49.908Z,82.81
2022-09-04T02:49:52.097Z,82.70
2022-09-04T02:50:50.506Z,82.70
2022-09-04T02:51:50.809Z,82.70
2022-09-04T02:52:52.996Z,82.81
2022-09-04T02:53:51.415Z,82.81
2022-09-04T02:54:53.565Z,82.70
2022-09-04T02:55:55.211Z,82.70
2022-09-04T02:56:52.235Z,82.67
2022-09-04T02:57:52.541Z,82.36
2022-09-04T02:58:54.723Z,82.70
2022-09-04T02:59:54.975Z,83.11
2022-09-04T03:00:55.176Z,83.31
2022-09-04T03:01:53.856Z,82.90
2022-09-04T03:02:56.019Z,83.01
2022-09-04T03:03:55.364Z,83.11
2022-09-04T03:04:56.587Z,83.21
2022-09-04T03:05:55.945Z,83.11
2022-09-04T03:06:55.310Z,82.70
2022-09-04T03:07:57.498Z,82.81
2022-09-04T03:08:57.370Z,83.11
2022-09-04T03:09:56.122Z,83.11
2022-09-04T03:10:58.306Z,83.21
2022-09-04T03:11:58.494Z,83.01
2022-09-04T03:12:58.691Z,82.90
2022-09-04T03:13:57.326Z,82.81
2022-09-04T03:15:00.967Z,82.81
2022-09-04T03:15:59.761Z,82.81
2022-09-04T03:16:58.115Z,82.90
2022-09-04T03:17:59.397Z,82.90
2022-09-04T03:18:59.553Z,82.30
2022-09-04T03:20:00.954Z,82.30
2022-09-04T03:21:01.136Z,82.40
2022-09-04T03:22:00.545Z,82.30
2022-09-04T03:23:00.968Z,82.50
2022-09-04T03:24:00.212Z,82.40
2022-09-04T03:25:00.544Z,82.50
2022-09-04T03:26:00.908Z,82.70
2022-09-04T03:27:02.093Z,82.50
2022-09-04T03:28:01.348Z,82.20
2022-09-04T03:29:01.654Z,82.30
2022-09-04T03:30:01.970Z,82.50
2022-09-04T03:31:04.163Z,82.30
2022-09-04T03:32:15.131Z,82.30
2022-09-04T03:33:03.875Z,82.40
2022-09-04T03:34:05.057Z,82.50
2022-09-04T03:35:05.214Z,82.50
2022-09-04T03:36:05.399Z,82.30
2022-09-04T03:37:05.578Z,82.10
2022-09-04T03:38:06.269Z,82.10
2022-09-04T03:39:10.282Z,81.99
2022-09-04T03:40:06.673Z,82.40
2022-09-04T03:41:05.853Z,82.30
2022-09-04T03:42:05.469Z,82.50
2022-09-04T03:43:05.782Z,82.70
2022-09-04T03:44:06.881Z,82.84
2022-09-04T03:45:06.379Z,82.81
2022-09-04T03:46:08.622Z,82.81
2022-09-04T03:47:06.953Z,82.95
2022-09-04T03:48:07.259Z,83.04
2022-09-04T03:49:08.449Z,83.35
2022-09-04T03:50:09.801Z,83.35
2022-09-04T03:51:09.986Z,83.35
2022-09-04T03:52:08.378Z,83.55
2022-09-04T03:53:08.683Z,83.45
2022-09-04T03:54:10.474Z,83.25
2022-09-04T03:55:09.239Z,83.25
2022-09-04T03:56:11.411Z,83.15
2022-09-04T03:57:11.572Z,83.35
2022-09-04T03:58:10.083Z,83.35
2022-09-04T03:59:13.453Z,83.15
2022-09-04T04:00:12.482Z,83.04
2022-09-04T04:01:12.681Z,83.04
2022-09-04T04:02:12.129Z,83.04
2022-09-04T04:03:12.000Z,83.25
2022-09-04T04:04:12.907Z,83.15
2022-09-04T04:05:14.156Z,83.15
2022-09-04T04:06:12.544Z,83.15
2022-09-04T04:07:12.878Z,83.25
2022-09-04T04:08:15.057Z,83.25
2022-09-04T04:09:14.942Z,83.45
2022-09-04T04:10:15.655Z,83.35
2022-09-04T04:11:13.939Z,83.35
2022-09-04T04:12:14.264Z,83.35
2022-09-04T04:13:14.586Z,82.84
2022-09-04T04:14:15.777Z,82.50
2022-09-04T04:15:17.157Z,82.84
2022-09-04T04:16:17.410Z,83.04
2022-09-04T04:17:20.416Z,82.84
2022-09-04T04:18:16.059Z,82.75
2022-09-04T04:19:18.368Z,82.75
2022-09-04T04:20:16.657Z,82.75
2022-09-04T04:21:18.840Z,82.84
2022-09-04T04:22:17.245Z,82.64
2022-09-04T04:23:19.433Z,82.50
2022-09-04T04:24:19.818Z,82.54
2022-09-04T04:25:18.095Z,82.30
2022-09-04T04:26:20.285Z,82.40
2022-09-04T04:27:18.695Z,82.20
2022-09-04T04:28:19.037Z,82.20
2022-09-04T04:29:20.854Z,82.44
2022-09-04T04:30:19.630Z,82.20
2022-09-04T04:31:21.877Z,81.99
2022-09-04T04:32:20.319Z,82.24
2022-09-04T04:33:20.539Z,82.14
2022-09-04T04:34:21.792Z,82.20
2022-09-04T04:35:23.159Z,82.10
2022-09-04T04:36:23.339Z,82.24
2022-09-04T04:37:21.753Z,82.34
2022-09-04T04:38:22.104Z,82.24
2022-09-04T04:39:26.848Z,82.34
2022-09-04T04:40:27.102Z,81.99
2022-09-04T04:41:23.039Z,81.90
2022-09-04T04:42:25.230Z,81.79
2022-09-04T04:43:23.635Z,81.90
2022-09-04T04:44:25.004Z,81.69
2022-09-04T04:45:24.273Z,81.69
2022-09-04T04:46:27.976Z,81.49
2022-09-04T04:47:28.105Z,81.39
2022-09-04T04:48:26.225Z,81.59
2022-09-04T04:49:26.895Z,81.49
2022-09-04T04:50:26.664Z,81.69
2022-09-04T04:51:27.881Z,82.14
2022-09-04T04:52:28.079Z,81.69
2022-09-04T04:53:27.393Z,81.90
2022-09-04T04:54:27.814Z,81.90
2022-09-04T04:55:27.095Z,81.90
2022-09-04T04:56:27.329Z,81.90
2022-09-04T04:57:30.965Z,82.03
2022-09-04T04:58:27.795Z,82.03
2022-09-04T04:59:31.473Z,82.24
2022-09-04T05:00:29.280Z,82.03
2022-09-04T05:01:29.475Z,81.93
2022-09-04T05:02:30.838Z,81.93
2022-09-04T05:03:30.972Z,82.03
2022-09-04T05:04:32.486Z,81.93
2022-09-04T05:05:30.595Z,81.79
2022-09-04T05:06:31.015Z,81.49
2022-09-04T05:07:31.246Z,81.39
2022-09-04T05:08:32.475Z,81.09
2022-09-04T05:09:33.799Z,80.98
2022-09-04T05:10:31.101Z,80.64
2022-09-04T05:11:31.353Z,79.49
2022-09-04T05:12:33.522Z,78.75
2022-09-04T05:13:33.704Z,78.00
2022-09-04T05:14:34.078Z,76.75
2022-09-04T05:15:32.501Z,76.11
2022-09-04T05:16:32.891Z,75.91
2022-09-04T05:17:33.090Z,75.91
2022-09-04T05:18:35.290Z,75.71
2022-09-04T05:19:35.097Z,75.81
2022-09-04T05:20:33.886Z,75.67
2022-09-04T05:21:34.117Z,74.43
2022-09-04T05:22:36.286Z,73.82
2022-09-04T05:23:34.710Z,73.82
2022-09-04T05:24:36.419Z,74.05
2022-09-04T05:25:35.227Z,74.56
2022-09-04T05:26:35.461Z,74.36
2022-09-04T05:27:37.639Z,73.72
2022-09-04T05:28:35.950Z,73.38
2022-09-04T05:29:38.170Z,73.28
2022-09-04T05:30:36.472Z,72.64
2022-09-04T05:31:38.762Z,72.04
2022-09-04T05:32:38.871Z,71.94
2022-09-04T05:33:39.055Z,72.04
2022-09-04T05:34:39.093Z,71.84
2022-09-04T05:35:39.829Z,72.34
2022-09-04T05:36:38.165Z,72.04
2022-09-04T05:37:40.338Z,72.11
2022-09-04T05:38:40.528Z,71.64
2022-09-04T05:39:41.983Z,72.04
2022-09-04T05:40:39.272Z,72.24
2022-09-04T05:41:41.465Z,73.38
2022-09-04T05:42:41.642Z,73.48
2022-09-04T05:43:43.074Z,72.64
2022-09-04T05:44:40.394Z,73.38
2022-09-04T05:45:42.604Z,72.98
2022-09-04T05:46:42.916Z,72.88
2022-09-04T05:47:43.033Z,73.45
2022-09-04T05:48:44.387Z,72.44
2022-09-04T05:49:41.695Z,71.70
2022-09-04T05:50:43.904Z,71.40
2022-09-04T05:51:44.072Z,71.50
2022-09-04T05:52:44.263Z,71.80
2022-09-04T05:53:45.707Z,71.50
2022-09-04T05:54:43.136Z,71.36
2022-09-04T05:55:45.335Z,70.46
2022-09-04T05:56:45.520Z,71.84
2022-09-04T05:57:43.948Z,71.80
2022-09-04T05:58:48.098Z,72.24
2022-09-04T05:59:46.346Z,71.80
2022-09-04T06:00:46.584Z,71.70
2022-09-04T06:01:51.623Z,70.96
2022-09-04T06:02:46.328Z,70.23
2022-09-04T06:03:46.538Z,69.69
2022-09-04T06:04:45.859Z,68.88
2022-09-04T06:05:46.088Z,68.45
2022-09-04T06:06:48.275Z,67.71
2022-09-04T06:07:48.489Z,67.85
2022-09-04T06:08:50.651Z,68.65
2022-09-04T06:09:48.889Z,68.48
2022-09-04T06:10:47.562Z,69.18
2022-09-04T06:11:47.796Z,69.18
2022-09-04T06:12:48.022Z,68.45
2022-09-04T06:13:49.155Z,68.02
2022-09-04T06:14:50.001Z,67.21
2022-09-04T06:15:48.832Z,67.11
2022-09-04T06:16:50.988Z,67.35
2022-09-04T06:17:49.309Z,68.18
2022-09-04T06:18:51.498Z,68.38
2022-09-04T06:19:49.820Z,68.35
2022-09-04T06:20:50.072Z,66.94
2022-09-04T06:21:50.322Z,68.15
2022-09-04T06:22:55.585Z,67.11
2022-09-04T06:23:50.911Z,67.31
2022-09-04T06:24:51.136Z,66.61
2022-09-04T06:25:51.371Z,66.28
2022-09-04T06:26:51.608Z,66.91
2022-09-04T06:27:53.796Z,67.24
2022-09-04T06:28:52.111Z,67.35
2022-09-04T06:29:54.301Z,66.61
2022-09-04T06:30:52.659Z,66.51
2022-09-04T06:31:52.862Z,66.08
2022-09-04T06:32:55.052Z,66.51
2022-09-04T06:33:53.372Z,67.41
2022-09-04T06:34:53.605Z,65.94
2022-09-04T06:35:57.755Z,64.91
2022-09-04T06:36:54.097Z,64.58
2022-09-04T06:37:56.281Z,64.54
2022-09-04T06:38:56.462Z,64.61
2022-09-04T06:39:54.986Z,64.81
2022-09-04T06:40:57.085Z,64.40
2022-09-04T06:41:55.524Z,64.61
2022-09-04T06:42:57.697Z,66.08
2022-09-04T06:43:57.887Z,65.04
2022-09-04T06:44:56.326Z,64.40
2022-09-04T06:46:01.510Z,65.24
2022-09-04T06:46:57.885Z,64.37
2022-09-04T06:47:57.046Z,64.18
2022-09-04T06:48:59.227Z,63.81
2022-09-04T06:49:57.538Z,65.57
2022-09-04T06:50:57.774Z,64.84
2022-09-04T06:52:01.939Z,64.40
2022-09-04T06:53:01.094Z,63.67
2022-09-04T06:54:03.481Z,63.07
2022-09-04T06:54:58.824Z,64.07
2022-09-04T06:55:59.071Z,62.74
2022-09-04T06:57:02.330Z,62.92
2022-09-04T06:57:59.659Z,61.91
2022-09-04T06:59:01.856Z,63.40
2022-09-04T07:00:00.188Z,64.21
2022-09-04T07:01:00.401Z,64.21
2022-09-04T07:02:00.813Z,63.28
2022-09-04T07:03:00.912Z,63.40
2022-09-04T07:04:03.099Z,62.77
2022-09-04T07:05:01.407Z,63.50
2022-09-04T07:06:01.658Z,63.57
2022-09-04T07:07:01.888Z,62.34
2022-09-04T07:08:04.194Z,61.58
2022-09-04T07:09:05.738Z,61.41
2022-09-04T07:10:04.254Z,60.48
2022-09-04T07:11:02.908Z,61.74
2022-09-04T07:12:06.554Z,61.61
2022-09-04T07:13:04.854Z,61.31
2022-09-04T07:14:07.045Z,61.54
2022-09-04T07:15:05.771Z,61.31
2022-09-04T07:16:05.262Z,60.71
2022-09-04T07:17:05.636Z,60.15
2022-09-04T07:18:06.459Z,59.65
2022-09-04T07:19:07.142Z,59.02
2022-09-04T07:20:07.337Z,59.15
2022-09-04T07:21:06.789Z,58.82
2022-09-04T07:22:06.945Z,58.39
2022-09-04T07:23:07.848Z,58.35
2022-09-04T07:24:08.599Z,58.82
2022-09-04T07:25:08.766Z,59.02
2022-09-04T07:26:08.955Z,58.62
2022-09-04T07:27:07.515Z,58.12
2022-09-04T07:28:08.673Z,58.02
2022-09-04T07:29:09.089Z,58.42
2022-09-04T07:30:10.299Z,57.84
2022-09-04T07:31:08.778Z,56.27
2022-09-04T07:32:10.920Z,57.52
2022-09-04T07:33:10.702Z,59.70
2022-09-04T07:34:10.401Z,59.48
2022-09-04T07:35:09.838Z,58.78
2022-09-04T07:36:12.026Z,59.58
2022-09-04T07:37:11.138Z,58.45
2022-09-04T07:38:12.065Z,59.41
2022-09-04T07:39:10.863Z,59.70
2022-09-04T07:40:11.106Z,59.61
2022-09-04T07:41:13.283Z,59.25
2022-09-04T07:42:11.588Z,57.29
2022-09-04T07:43:13.312Z,56.37
2022-09-04T07:44:14.045Z,56.16
2022-09-04T07:45:12.349Z,56.39
2022-09-04T07:46:15.565Z,56.67
2022-09-04T07:47:14.749Z,57.12
2022-09-04T07:48:16.235Z,56.67
2022-09-04T07:49:15.134Z,56.37
2022-09-04T07:50:15.285Z,56.14
2022-09-04T07:51:15.976Z,54.82
2022-09-04T07:52:16.162Z,55.14
2022-09-04T07:53:14.601Z,55.84
2022-09-04T07:54:22.356Z,55.64
2022-09-04T07:55:16.067Z,55.74
2022-09-04T07:56:17.253Z,55.54
2022-09-04T07:57:17.434Z,55.39
2022-09-04T07:58:15.992Z,55.26
2022-09-04T07:59:16.285Z,53.86
2022-09-04T08:00:16.524Z,54.49
2022-09-04T08:01:18.780Z,55.02
2022-09-04T08:02:17.055Z,55.34
2022-09-04T08:03:18.114Z,55.04
2022-09-04T08:04:17.584Z,55.74
2022-09-04T08:05:17.899Z,56.16
2022-09-04T08:06:19.998Z,55.51
2022-09-04T08:07:18.442Z,53.96
2022-09-04T08:08:20.735Z,53.56
2022-09-04T08:09:20.908Z,54.71
2022-09-04T08:10:19.381Z,55.71
2022-09-04T08:11:21.536Z,55.44
2022-09-04T08:12:19.848Z,55.62
2022-09-04T08:13:23.982Z,54.82
2022-09-04T08:14:22.219Z,55.11
2022-09-04T08:15:20.661Z,55.32
2022-09-04T08:16:22.931Z,54.49
2022-09-04T08:17:21.215Z,54.22
2022-09-04T08:18:25.500Z,53.81
2022-09-04T08:19:23.758Z,55.24
2022-09-04T08:20:21.959Z,54.69
2022-09-04T08:21:24.134Z,53.36
2022-09-04T08:22:28.228Z,53.64
2022-09-04T08:23:24.648Z,53.89
2022-09-04T08:24:24.934Z,53.66
2022-09-04T08:25:23.360Z,53.66
2022-09-04T08:26:23.583Z,53.14
2022-09-04T08:27:25.764Z,53.96
2022-09-04T08:28:26.049Z,53.86
2022-09-04T08:29:26.137Z,53.24
2022-09-04T08:30:24.717Z,52.81
2022-09-04T08:31:24.839Z,52.29
2022-09-04T08:32:25.065Z,52.09
2022-09-04T08:33:28.216Z,51.57
2022-09-04T08:34:27.405Z,51.25
2022-09-04T08:35:27.584Z,51.05
2022-09-04T08:36:26.143Z,51.92
2022-09-04T08:37:26.381Z,53.11
2022-09-04T08:38:26.752Z,51.97
2022-09-04T08:39:28.879Z,50.85
2022-09-04T08:40:27.158Z,52.12
2022-09-04T08:41:29.345Z,52.42
2022-09-04T08:42:27.669Z,52.44
2022-09-04T08:43:29.825Z,52.69
2022-09-04T08:44:30.009Z,51.47
2022-09-04T08:45:28.801Z,51.70
2022-09-04T08:46:29.090Z,51.45
2022-09-04T08:47:29.036Z,51.27
2022-09-04T08:48:31.230Z,51.97
2022-09-04T08:49:31.370Z,50.95
2022-09-04T08:50:29.810Z,51.47
2022-09-04T08:51:30.053Z,52.42
2022-09-04T08:52:30.300Z,53.39
2022-09-04T08:53:32.492Z,51.87
2022-09-04T08:54:32.682Z,52.49
2022-09-04T08:55:31.117Z,52.59
2022-09-04T08:56:33.284Z,52.32
2022-09-04T08:57:31.591Z,53.79
2022-09-04T08:58:34.253Z,54.29
2022-09-04T08:59:33.939Z,53.86
2022-09-04T09:00:32.376Z,52.59
2022-09-04T09:01:34.605Z,52.09
2022-09-04T09:02:34.829Z,53.61
2022-09-04T09:03:34.969Z,51.84
2022-09-04T09:04:33.407Z,50.58
2022-09-04T09:05:35.874Z,50.31
2022-09-04T09:06:34.854Z,50.68
2022-09-04T09:07:34.367Z,49.26
2022-09-04T09:08:34.603Z,50.58
2022-09-04T09:09:34.846Z,50.26
2022-09-04T09:10:37.038Z,49.26
2022-09-04T09:11:35.348Z,50.33
2022-09-04T09:12:40.251Z,51.65
2022-09-04T09:13:36.966Z,51.77
2022-09-04T09:14:36.150Z,51.95
2022-09-04T09:15:38.359Z,51.82
2022-09-04T09:16:36.750Z,52.42
2022-09-04T09:17:39.939Z,50.52
2022-09-04T09:18:37.296Z,51.79
2022-09-04T09:19:37.494Z,51.22
2022-09-04T09:20:39.676Z,52.34
2022-09-04T09:21:37.986Z,52.22
2022-09-04T09:22:39.707Z,51.84
2022-09-04T09:23:40.427Z,51.65
2022-09-04T09:24:42.583Z,52.09
2022-09-04T09:25:43.467Z,50.58
2022-09-04T09:26:43.193Z,49.86
2022-09-04T09:27:40.521Z,49.29
2022-09-04T09:28:41.750Z,48.42
2022-09-04T09:29:40.063Z,49.44
2022-09-04T09:30:42.304Z,50.31
2022-09-04T09:31:42.434Z,51.62
2022-09-04T09:32:41.834Z,51.45
2022-09-04T09:33:41.121Z,52.74
2022-09-04T09:34:41.364Z,51.92
2022-09-04T09:35:43.551Z,49.51
2022-09-04T09:36:41.863Z,48.30
2022-09-04T09:37:43.587Z,50.38
2022-09-04T09:38:42.384Z,52.24
2022-09-04T09:39:42.738Z,50.56
2022-09-04T09:40:44.814Z,50.10
2022-09-04T09:41:43.250Z,50.40
2022-09-04T09:42:44.456Z,50.28
2022-09-04T09:43:46.747Z,50.56
2022-09-04T09:44:44.075Z,50.68
2022-09-04T09:45:46.306Z,51.52
2022-09-04T09:46:45.612Z,52.22
2022-09-04T09:47:46.387Z,51.75
2022-09-04T09:48:46.649Z,52.12
2022-09-04T09:49:46.339Z,51.82
2022-09-04T09:50:47.705Z,51.00
2022-09-04T09:51:46.913Z,51.10
2022-09-04T09:52:47.820Z,51.32
2022-09-04T09:53:47.713Z,52.24
2022-09-04T09:54:49.742Z,52.34
2022-09-04T09:55:48.915Z,51.54
2022-09-04T09:56:53.601Z,52.27
2022-09-04T09:57:49.671Z,52.42
2022-09-04T09:58:47.980Z,50.05
2022-09-04T09:59:49.180Z,50.60
2022-09-04T10:00:49.383Z,52.04
2022-09-04T10:01:48.788Z,52.47
2022-09-04T10:02:50.135Z,52.27
2022-09-04T10:03:50.855Z,52.67
2022-09-04T10:04:49.555Z,53.16
2022-09-04T10:05:51.734Z,53.04
2022-09-04T10:06:51.910Z,51.72
2022-09-04T10:07:51.826Z,52.69
2022-09-04T10:08:51.426Z,50.68
2022-09-04T10:09:50.866Z,50.56
2022-09-04T10:10:53.051Z,50.03
2022-09-04T10:11:51.366Z,49.49
2022-09-04T10:12:51.821Z,49.64
2022-09-04T10:13:51.903Z,48.13
2022-09-04T10:14:52.144Z,47.44
2022-09-04T10:15:52.395Z,47.44
2022-09-04T10:16:53.613Z,47.61
2022-09-04T10:17:54.379Z,47.63
2022-09-04T10:18:55.107Z,47.24
2022-09-04T10:19:55.307Z,47.00
2022-09-04T10:20:55.486Z,48.05
2022-09-04T10:21:55.690Z,47.24
2022-09-04T10:22:57.890Z,47.93
2022-09-04T10:23:54.607Z,47.24
2022-09-04T10:24:56.799Z,47.56
2022-09-04T10:25:55.142Z,47.75
2022-09-04T10:26:57.317Z,47.96
2022-09-04T10:27:59.526Z,48.00
2022-09-04T10:28:55.975Z,50.35
2022-09-04T10:29:58.161Z,50.88
2022-09-04T10:30:58.398Z,49.14
2022-09-04T10:31:58.528Z,49.41
2022-09-04T10:32:57.826Z,48.47
2022-09-04T10:33:59.175Z,48.00
2022-09-04T10:34:57.483Z,48.94
2022-09-04T10:35:57.735Z,49.98
2022-09-04T10:36:59.913Z,50.18
2022-09-04T10:37:59.136Z,51.42
2022-09-04T10:39:00.492Z,50.78
2022-09-04T10:39:58.974Z,49.71
2022-09-04T10:40:59.095Z,50.11
2022-09-04T10:42:01.285Z,48.67
2022-09-04T10:43:03.457Z,48.27
2022-09-04T10:43:59.917Z,48.69
2022-09-04T10:45:02.101Z,50.03
2022-09-04T10:46:00.451Z,50.05
2022-09-04T10:47:00.675Z,49.32
2022-09-04T10:48:01.764Z,49.86
2022-09-04T10:49:01.195Z,50.78
2022-09-04T10:50:03.386Z,50.13
2022-09-04T10:51:01.822Z,49.54
2022-09-04T10:52:02.912Z,48.52
2022-09-04T10:53:05.380Z,49.24
2022-09-04T10:54:07.287Z,49.66
2022-09-04T10:55:03.817Z,47.52
2022-09-04T10:56:04.983Z,46.78
2022-09-04T10:57:05.136Z,47.74
2022-09-04T10:58:06.694Z,47.44
2022-09-04T10:59:04.019Z,47.74
2022-09-04T11:00:06.274Z,48.25
2022-09-04T11:01:04.634Z,48.63
2022-09-04T11:02:04.893Z,48.05
2022-09-04T11:03:05.955Z,48.75
2022-09-04T11:04:05.387Z,47.52
2022-09-04T11:05:07.565Z,48.03
2022-09-04T11:06:05.887Z,48.05
2022-09-04T11:07:06.124Z,47.49
2022-09-04T11:08:07.447Z,47.00
2022-09-04T11:09:06.616Z,48.55
2022-09-04T11:10:08.804Z,46.85
2022-09-04T11:11:07.143Z,45.74
2022-09-04T11:12:09.335Z,45.27
2022-09-04T11:13:11.542Z,45.35
2022-09-04T11:14:07.978Z,43.35
2022-09-04T11:15:08.221Z,43.83
2022-09-04T11:16:10.499Z,44.59
2022-09-04T11:17:08.765Z,46.86
2022-09-04T11:18:09.891Z,46.42
2022-09-04T11:19:11.230Z,45.72
2022-09-04T11:20:09.669Z,46.22
2022-09-04T11:21:11.851Z,46.02
2022-09-04T11:22:10.166Z,46.71
2022-09-04T11:23:14.330Z,46.05
2022-09-04T11:24:10.657Z,44.45
2022-09-04T11:25:10.901Z,44.89
2022-09-04T11:26:13.090Z,45.97
2022-09-04T11:27:11.526Z,45.85
2022-09-04T11:28:13.791Z,44.84
2022-09-04T11:29:11.998Z,45.04
2022-09-04T11:30:12.305Z,45.01
2022-09-04T11:31:14.445Z,44.82
2022-09-04T11:32:12.870Z,44.09
2022-09-04T11:33:16.136Z,44.31
2022-09-04T11:34:15.552Z,43.61
2022-09-04T11:35:13.625Z,43.88
2022-09-04T11:36:15.810Z,43.57
2022-09-04T11:37:14.126Z,45.72
2022-09-04T11:38:17.446Z,46.04
2022-09-04T11:39:14.640Z,46.76
2022-09-04T11:40:18.256Z,46.56
2022-09-04T11:41:18.446Z,47.40
2022-09-04T11:42:15.528Z,47.72
2022-09-04T11:43:16.709Z,46.41
2022-09-04T11:44:16.009Z,45.94
2022-09-04T11:45:16.248Z,44.90
2022-09-04T11:46:18.463Z,44.29
2022-09-04T11:47:16.775Z,44.11
2022-09-04T11:48:18.034Z,45.03
2022-09-04T11:49:17.265Z,44.93
2022-09-04T11:50:19.469Z,44.90
2022-09-04T11:51:19.649Z,44.68
2022-09-04T11:52:18.083Z,45.38
2022-09-04T11:53:21.453Z,44.27
2022-09-04T11:54:18.641Z,43.93
2022-09-04T11:55:21.482Z,43.93
2022-09-04T11:56:21.088Z,42.92
2022-09-04T11:57:20.224Z,42.80
2022-09-04T11:58:20.643Z,42.90
2022-09-04T11:59:21.840Z,42.72
2022-09-04T12:00:21.217Z,42.52
2022-09-04T12:01:24.426Z,43.24
2022-09-04T12:02:22.695Z,42.52
2022-09-04T12:03:21.955Z,42.54
2022-09-04T12:04:24.686Z,43.06
2022-09-04T12:05:25.326Z,42.22
2022-09-04T12:06:25.027Z,42.30
2022-09-04T12:07:23.106Z,43.63
2022-09-04T12:08:23.263Z,44.32
2022-09-04T12:09:24.611Z,43.24
2022-09-04T12:10:23.845Z,42.36
2022-09-04T12:11:23.166Z,43.08
2022-09-04T12:12:24.419Z,44.29
2022-09-04T12:13:24.576Z,44.19
2022-09-04T12:14:25.929Z,42.78
2022-09-04T12:15:25.158Z,42.58
2022-09-04T12:16:26.514Z,42.80
2022-09-04T12:17:24.817Z,42.38
2022-09-04T12:18:25.065Z,41.06
2022-09-04T12:19:27.260Z,41.46
2022-09-04T12:20:25.561Z,41.24
2022-09-04T12:21:26.411Z,42.19
2022-09-04T12:22:26.101Z,43.08
2022-09-04T12:23:26.443Z,42.64
2022-09-04T12:24:28.518Z,41.41
2022-09-04T12:25:26.891Z,41.67
2022-09-04T12:26:29.089Z,42.29
2022-09-04T12:27:29.254Z,42.01
2022-09-04T12:28:29.408Z,42.43
2022-09-04T12:29:29.563Z,41.79
2022-09-04T12:30:30.262Z,41.73
2022-09-04T12:31:30.483Z,42.41
2022-09-04T12:32:30.637Z,41.97
2022-09-04T12:33:30.826Z,41.16
2022-09-04T12:34:29.511Z,41.77
2022-09-04T12:35:33.656Z,42.11
2022-09-04T12:36:29.994Z,41.79
2022-09-04T12:37:34.125Z,42.43
2022-09-04T12:38:30.596Z,43.54
2022-09-04T12:39:30.896Z,42.60
2022-09-04T12:40:34.019Z,42.09
2022-09-04T12:41:34.257Z,41.52
2022-09-04T12:42:33.477Z,41.61
2022-09-04T12:43:33.646Z,41.28
2022-09-04T12:44:32.168Z,40.62
2022-09-04T12:45:36.359Z,40.78
2022-09-04T12:46:32.680Z,41.99
2022-09-04T12:47:34.888Z,41.46
2022-09-04T12:48:35.094Z,41.95
2022-09-04T12:49:35.548Z,40.88
2022-09-04T12:50:36.646Z,40.19
2022-09-04T12:51:34.089Z,40.55
2022-09-04T12:52:36.281Z,40.52
2022-09-04T12:53:36.462Z,39.29
2022-09-04T12:54:36.654Z,40.12
2022-09-04T12:55:38.214Z,40.50